Time;durP1;ratioP1;P1;durP2;ratioP2;P2;SDS_P1;SDS_P2;PMS_P1;PMS_P2;Temp;Humidity;BMP_temperature;BMP_pressure;BME280_temperature;BME280_humidity;BME280_pressure;Samples;Min_cycle;Max_cycle;Signal;HPM_P1;HPM_P2
2021/10/01 00:01:12;;;;;;;2.40;2.20;;;6.90;99.90;;;;;;5041155;28;20021;-72
2021/10/01 00:03:38;;;;;;;5.38;2.83;;;7.00;99.90;;;;;;5065273;28;20502;-72
2021/10/01 00:06:03;;;;;;;4.32;2.30;;;7.00;99.90;;;;;;5039525;28;20031;-73
2021/10/01 00:08:29;;;;;;;4.97;1.98;;;7.00;99.90;;;;;;5060018;28;20027;-73
2021/10/01 00:10:57;;;;;;;3.80;1.80;;;7.10;99.90;;;;;;5036752;28;20028;-73
2021/10/01 00:13:23;;;;;;;3.05;2.10;;;7.00;99.90;;;;;;5056523;28;20040;-72
2021/10/01 00:15:49;;;;;;;3.47;1.60;;;7.10;99.90;;;;;;5066295;28;20060;-74
2021/10/01 00:18:15;;;;;;;1.88;1.38;;;7.10;99.90;;;;;;5053235;28;20107;-72
2021/10/01 00:20:40;;;;;;;3.80;2.10;;;7.10;99.90;;;;;;5048425;28;20387;-72
2021/10/01 00:23:06;;;;;;;2.00;1.48;;;7.20;99.90;;;;;;5050434;28;20030;-73
2021/10/01 00:25:32;;;;;;;3.72;1.50;;;7.20;99.90;;;;;;5063979;28;20025;-73
2021/10/01 00:27:57;;;;;;;3.17;1.30;;;7.20;99.90;;;;;;5067217;28;20064;-72
2021/10/01 00:30:23;;;;;;;3.60;1.85;;;7.10;99.90;;;;;;5062616;28;20099;-73
2021/10/01 00:32:52;;;;;;;2.05;1.60;;;6.90;99.90;;;;;;5065153;28;20024;-73
2021/10/01 00:35:17;;;;;;;3.17;1.50;;;6.60;99.90;;;;;;5062040;28;20017;-73
2021/10/01 00:37:43;;;;;;;3.75;1.73;;;6.70;99.90;;;;;;5053876;28;20116;-73
2021/10/01 00:40:09;;;;;;;4.53;1.40;;;6.80;99.90;;;;;;5045139;28;20025;-73
2021/10/01 00:42:35;;;;;;;3.78;1.50;;;6.90;99.90;;;;;;5043879;28;20119;-73
2021/10/01 00:45:00;;;;;;;4.65;1.52;;;6.80;99.90;;;;;;5052847;28;20107;-74
2021/10/01 00:47:26;;;;;;;3.45;1.52;;;6.80;99.90;;;;;;5058692;28;20025;-73
2021/10/01 00:49:51;;;;;;;2.40;1.70;;;6.80;99.90;;;;;;5063903;28;20028;-73
2021/10/01 00:52:19;;;;;;;4.13;2.20;;;6.70;99.90;;;;;;5042777;28;20024;-73
2021/10/01 00:54:45;;;;;;;3.22;2.22;;;6.80;99.90;;;;;;5066603;28;20028;-73
2021/10/01 00:57:10;;;;;;;3.70;2.70;;;7.00;99.90;;;;;;5054131;28;20388;-73
2021/10/01 00:59:36;;;;;;;3.58;2.22;;;6.80;99.90;;;;;;5048021;28;20021;-73
2021/10/01 01:02:02;;;;;;;5.80;2.00;;;6.70;99.90;;;;;;5042634;28;20479;-73
2021/10/01 01:04:28;;;;;;;3.83;2.30;;;6.80;99.90;;;;;;5067803;28;20067;-72
2021/10/01 01:07:18;;;;;;;4.90;2.95;;;6.80;99.90;;;;;;5043075;28;20106;-72
2021/10/01 01:10:04;;;;;;;3.40;2.40;;;6.90;99.90;;;;;;5057894;28;20635;-73
2021/10/01 01:12:45;;;;;;;5.72;2.60;;;6.90;99.90;;;;;;5040406;28;20029;-73
2021/10/01 01:15:27;;;;;;;3.17;2.03;;;7.00;99.90;;;;;;5043802;28;20108;-73
2021/10/01 01:17:59;;;;;;;4.03;2.30;;;7.10;99.90;;;;;;5014563;28;20025;-73
2021/10/01 01:20:51;;;;;;;2.88;2.10;;;7.10;99.90;;;;;;5032386;28;20026;-72
2021/10/01 01:23:54;;;;;;;2.65;2.20;;;7.00;99.90;;;;;;5032578;28;20483;-73
2021/10/01 01:26:47;;;;;;;8.35;2.80;;;7.00;99.90;;;;;;5045656;28;20037;-73
2021/10/01 01:29:36;;;;;;;4.40;2.33;;;7.00;99.90;;;;;;5032354;28;20499;-73
2021/10/01 01:32:16;;;;;;;2.95;2.28;;;7.10;99.90;;;;;;5027516;28;20047;-73
2021/10/01 01:34:52;;;;;;;2.95;2.03;;;7.00;99.90;;;;;;5014564;28;20479;-74
2021/10/01 01:37:31;;;;;;;;;;;7.00;99.90;;;;;;5035857;28;20037;-75
2021/10/01 01:39:59;;;;;;;3.72;2.25;;;6.90;99.90;;;;;;5040787;28;19912;-73
2021/10/01 01:42:26;;;;;;;6.63;2.50;;;7.00;99.90;;;;;;5019755;28;20017;-74
2021/10/01 01:44:53;;;;;;;4.25;2.30;;;7.00;99.90;;;;;;5021401;28;20036;-73
2021/10/01 01:47:18;;;;;;;2.63;2.25;;;7.00;99.90;;;;;;5052312;28;20040;-74
2021/10/01 01:49:45;;;;;;;3.63;2.20;;;6.90;99.90;;;;;;5051111;28;20033;-73
2021/10/01 01:52:14;;;;;;;5.20;2.63;;;6.90;99.90;;;;;;5055622;28;20025;-73
2021/10/01 01:54:41;;;;;;;5.00;2.50;;;6.90;99.90;;;;;;5059793;28;20036;-74
2021/10/01 01:57:07;;;;;;;2.33;2.00;;;6.80;99.90;;;;;;5057398;28;20104;-74
2021/10/01 01:59:34;;;;;;;5.35;2.20;;;6.70;99.90;;;;;;5025363;28;20172;-74
2021/10/01 02:02:00;;;;;;;3.30;2.22;;;6.70;99.90;;;;;;5044272;28;20044;-74
2021/10/01 02:04:27;;;;;;;3.72;2.33;;;6.60;99.90;;;;;;5037989;28;20377;-73
2021/10/01 02:06:54;;;;;;;3.67;2.00;;;6.70;99.90;;;;;;5056543;28;20036;-73
2021/10/01 02:09:21;;;;;;;2.67;2.00;;;6.60;99.90;;;;;;5053180;28;20368;-74
2021/10/01 02:11:48;;;;;;;2.95;1.90;;;6.60;99.90;;;;;;5038302;28;20529;-74
2021/10/01 02:14:23;;;;;;;2.35;1.83;;;6.70;99.90;;;;;;5051661;28;20032;-74
2021/10/01 02:16:49;;;;;;;3.83;2.30;;;6.70;99.90;;;;;;5047606;28;20025;-74
2021/10/01 02:19:20;;;;;;;6.97;2.33;;;6.70;99.90;;;;;;5044917;28;20021;-74
2021/10/01 02:21:47;;;;;;;3.17;2.17;;;6.70;99.90;;;;;;5030509;28;20053;-72
2021/10/01 02:24:14;;;;;;;2.50;2.00;;;6.70;99.90;;;;;;5040777;28;20048;-72
2021/10/01 02:26:59;;;;;;;4.03;1.95;;;6.50;99.90;;;;;;5021822;28;20514;-72
2021/10/01 02:29:30;;;;;;;3.20;1.80;;;6.40;99.90;;;;;;5056452;28;20418;-73
2021/10/01 02:32:09;;;;;;;2.17;1.70;;;6.30;99.90;;;;;;5063058;28;20108;-73
2021/10/01 02:34:41;;;;;;;2.13;1.92;;;6.40;99.90;;;;;;5047154;28;20528;-72
2021/10/01 02:37:07;;;;;;;2.58;2.00;;;6.50;99.90;;;;;;5042155;28;20021;-72
2021/10/01 02:39:38;;;;;;;2.08;1.88;;;6.50;99.90;;;;;;5029838;28;20028;-72
2021/10/01 02:42:05;;;;;;;2.47;2.28;;;6.50;99.90;;;;;;5058014;28;20017;-73
2021/10/01 02:44:32;;;;;;;3.63;2.25;;;6.20;99.90;;;;;;5040201;28;20380;-74
2021/10/01 02:46:58;;;;;;;2.28;2.05;;;6.30;99.90;;;;;;5026933;28;20155;-72
2021/10/01 02:49:23;;;;;;;3.03;2.22;;;6.00;99.90;;;;;;5030139;28;20553;-72
2021/10/01 02:51:53;;;;;;;3.25;2.20;;;6.10;99.90;;;;;;5036837;28;20029;-72
2021/10/01 02:54:27;;;;;;;2.50;2.30;;;6.10;99.90;;;;;;5047139;28;20029;-72
2021/10/01 02:56:59;;;;;;;3.85;1.90;;;6.10;99.90;;;;;;5051660;28;20030;-73
2021/10/01 02:59:28;;;;;;;3.25;1.77;;;6.20;99.90;;;;;;5051013;28;20029;-73
2021/10/01 03:01:55;;;;;;;4.72;2.83;;;6.30;99.90;;;;;;5026595;28;20052;-72
2021/10/01 03:04:24;;;;;;;2.75;2.55;;;6.20;99.90;;;;;;5026954;28;20509;-74
2021/10/01 03:06:51;;;;;;;4.95;2.45;;;6.20;99.90;;;;;;5044869;28;20386;-75
2021/10/01 03:09:20;;;;;;;3.40;2.50;;;6.40;99.90;;;;;;5044465;28;20369;-72
2021/10/01 03:11:46;;;;;;;5.38;2.60;;;6.50;99.90;;;;;;5050543;28;20379;-72
2021/10/01 03:14:15;;;;;;;3.97;2.30;;;6.50;99.90;;;;;;5051368;28;20043;-72
2021/10/01 03:16:41;;;;;;;7.53;2.38;;;6.50;99.90;;;;;;5045420;28;20082;-73
2021/10/01 03:19:07;;;;;;;2.67;2.40;;;6.60;99.90;;;;;;5044583;28;20060;-73
2021/10/01 03:21:34;;;;;;;2.83;2.50;;;6.60;99.90;;;;;;5048303;28;20574;-73
2021/10/01 03:24:01;;;;;;;3.67;2.38;;;6.60;99.90;;;;;;5035193;28;20026;-74
2021/10/01 03:26:27;;;;;;;4.40;2.47;;;6.60;99.90;;;;;;5035182;28;20017;-73
2021/10/01 03:28:53;;;;;;;4.82;2.60;;;6.60;99.90;;;;;;5048273;28;20517;-73
2021/10/01 03:31:18;;;;;;;4.07;2.90;;;6.60;99.90;;;;;;5024231;28;20039;-73
2021/10/01 03:33:45;;;;;;;3.15;2.38;;;6.50;99.90;;;;;;5040824;28;20032;-72
2021/10/01 03:36:11;;;;;;;2.58;2.15;;;6.50;99.90;;;;;;5046782;28;20032;-73
2021/10/01 03:38:38;;;;;;;5.20;2.45;;;6.50;99.90;;;;;;5035016;28;20427;-71
2021/10/01 03:41:03;;;;;;;3.08;2.20;;;6.30;99.90;;;;;;5029140;28;20040;-72
2021/10/01 03:43:29;;;;;;;3.05;2.35;;;6.50;99.90;;;;;;5030611;28;20021;-71
2021/10/01 03:45:58;;;;;;;3.65;2.70;;;6.50;99.90;;;;;;5028165;28;20116;-73
2021/10/01 03:48:25;;;;;;;5.22;2.65;;;6.40;99.90;;;;;;5036298;28;20491;-74
2021/10/01 03:50:51;;;;;;;3.50;2.60;;;6.30;99.90;;;;;;5045253;28;20065;-74
2021/10/01 03:53:17;;;;;;;4.22;2.88;;;6.40;99.90;;;;;;5047526;28;20103;-73
2021/10/01 03:55:42;;;;;;;4.10;2.33;;;6.20;99.90;;;;;;5042635;28;20071;-74
2021/10/01 03:58:08;;;;;;;4.63;2.63;;;6.10;99.90;;;;;;5022861;28;20022;-74
2021/10/01 04:00:36;;;;;;;11.23;3.35;;;6.30;99.90;;;;;;5028229;28;20029;-73
2021/10/01 04:03:01;;;;;;;4.78;2.72;;;6.40;99.90;;;;;;5049021;28;20020;-73
2021/10/01 04:05:27;;;;;;;7.90;2.70;;;6.40;99.90;;;;;;5042154;28;20044;-74
2021/10/01 04:07:52;;;;;;;4.68;2.42;;;6.40;99.90;;;;;;5040383;28;20021;-74
2021/10/01 04:10:18;;;;;;;5.28;2.50;;;6.40;99.90;;;;;;5045586;28;20036;-73
2021/10/01 04:12:44;;;;;;;4.72;2.42;;;6.30;99.90;;;;;;5047126;28;20107;-72
2021/10/01 04:15:11;;;;;;;4.05;2.60;;;6.30;99.90;;;;;;5024188;28;20040;-72
2021/10/01 04:17:37;;;;;;;6.10;2.65;;;6.20;99.90;;;;;;5022678;28;20383;-74
2021/10/01 04:20:04;;;;;;;4.05;2.72;;;6.20;99.90;;;;;;5045525;28;20472;-73
2021/10/01 04:22:30;;;;;;;4.63;2.55;;;6.20;99.90;;;;;;5030495;28;20538;-73
2021/10/01 04:24:55;;;;;;;7.32;3.42;;;6.20;99.90;;;;;;5045365;28;20053;-72
2021/10/01 04:27:21;;;;;;;6.38;2.83;;;6.20;99.90;;;;;;5046833;28;20483;-72
2021/10/01 04:29:47;;;;;;;3.70;2.78;;;6.00;99.90;;;;;;5041472;28;20025;-73
2021/10/01 04:32:12;;;;;;;4.88;2.70;;;6.00;99.90;;;;;;5039745;28;20025;-73
2021/10/01 04:34:59;;;;;;;4.82;3.20;;;5.90;99.90;;;;;;5053193;28;20037;-72
2021/10/01 04:37:25;;;;;;;5.38;2.63;;;5.90;99.90;;;;;;5035638;28;20025;-73
2021/10/01 04:39:52;;;;;;;3.88;2.50;;;6.00;99.90;;;;;;5044054;28;20017;-72
2021/10/01 04:42:18;;;;;;;3.60;2.60;;;6.20;99.90;;;;;;5039496;28;20018;-74
2021/10/01 04:44:44;;;;;;;5.30;3.10;;;6.30;99.90;;;;;;5023201;28;20055;-74
2021/10/01 04:47:09;;;;;;;2.90;2.25;;;6.40;99.90;;;;;;5038394;28;20032;-74
2021/10/01 04:49:35;;;;;;;4.15;3.00;;;6.40;99.90;;;;;;5023378;28;20495;-74
2021/10/01 04:52:00;;;;;;;4.35;2.50;;;6.30;99.90;;;;;;5037933;28;20040;-75
2021/10/01 04:54:26;;;;;;;3.95;2.70;;;6.30;99.90;;;;;;5041308;28;20037;-74
2021/10/01 04:56:52;;;;;;;4.55;2.72;;;6.30;99.90;;;;;;5028248;28;20032;-74
2021/10/01 04:59:17;;;;;;;4.78;3.05;;;6.40;99.90;;;;;;5044642;28;20035;-75
2021/10/01 05:01:43;;;;;;;2.97;2.58;;;6.30;99.90;;;;;;5021632;28;20044;-73
2021/10/01 05:04:08;;;;;;;5.30;2.63;;;6.30;99.90;;;;;;5040928;28;20423;-74
2021/10/01 05:06:34;;;;;;;4.80;2.85;;;6.40;99.90;;;;;;5028189;28;20022;-75
2021/10/01 05:08:59;;;;;;;5.15;3.05;;;6.30;99.90;;;;;;5026495;28;20033;-74
2021/10/01 05:11:25;;;;;;;4.20;2.95;;;6.30;99.90;;;;;;5038908;28;20059;-74
2021/10/01 05:13:50;;;;;;;5.43;3.05;;;6.30;99.90;;;;;;5023587;28;20048;-74
2021/10/01 05:16:16;;;;;;;4.78;2.78;;;6.20;99.90;;;;;;5045797;28;20021;-75
2021/10/01 05:18:41;;;;;;;5.10;3.50;;;6.30;99.90;;;;;;5043573;28;20399;-74
2021/10/01 05:21:07;;;;;;;5.00;3.45;;;6.30;99.90;;;;;;5039237;28;20455;-73
2021/10/01 05:23:32;;;;;;;5.18;3.72;;;5.90;99.90;;;;;;5041805;28;20037;-75
2021/10/01 05:25:59;;;;;;;7.28;3.90;;;5.50;99.90;;;;;;5046731;28;20025;-75
2021/10/01 05:28:25;;;;;;;21.90;13.18;;;4.90;99.90;;;;;;5025700;28;20052;-75
2021/10/01 05:30:50;;;;;;;6.82;5.05;;;4.90;99.90;;;;;;5020695;28;20483;-75
2021/10/01 05:33:16;;;;;;;4.75;3.83;;;5.00;99.90;;;;;;5024098;28;20367;-74
2021/10/01 05:35:44;;;;;;;4.32;3.92;;;5.10;99.90;;;;;;5017975;28;20079;-74
2021/10/01 05:38:11;;;;;;;4.00;3.60;;;5.30;99.90;;;;;;5023924;28;20021;-74
2021/10/01 05:40:37;;;;;;;5.00;3.63;;;5.40;99.90;;;;;;5045430;28;20026;-75
2021/10/01 05:43:03;;;;;;;11.82;7.50;;;5.40;99.90;;;;;;5042727;28;20028;-75
2021/10/01 05:45:29;;;;;;;5.75;3.60;;;5.50;99.90;;;;;;5064686;28;20055;-74
2021/10/01 05:47:55;;;;;;;5.93;3.65;;;5.50;99.90;;;;;;5022498;28;20021;-75
2021/10/01 05:50:23;;;;;;;6.07;3.95;;;5.60;99.90;;;;;;5027587;28;20129;-75
2021/10/01 05:52:53;;;;;;;4.82;3.40;;;5.60;99.90;;;;;;5025958;28;20025;-74
2021/10/01 05:55:18;;;;;;;4.93;3.43;;;5.70;99.90;;;;;;5038832;28;20070;-73
2021/10/01 05:57:44;;;;;;;5.93;3.53;;;5.80;99.90;;;;;;5021583;28;20063;-72
2021/10/01 06:00:10;;;;;;;12.70;4.20;;;5.60;99.90;;;;;;5045404;28;20034;-74
2021/10/01 06:02:36;;;;;;;3.97;3.15;;;6.30;99.90;;;;;;5026463;28;20107;-74
2021/10/01 06:05:01;;;;;;;6.28;3.78;;;6.50;99.90;;;;;;5032512;28;20487;-73
2021/10/01 06:07:28;;;;;;;7.88;3.05;;;7.00;99.90;;;;;;5031893;28;20587;-74
2021/10/01 06:09:53;;;;;;;5.68;3.30;;;7.10;99.90;;;;;;5035604;28;20096;-74
2021/10/01 06:12:19;;;;;;;4.65;3.10;;;7.10;99.90;;;;;;5025174;28;20035;-74
2021/10/01 06:14:45;;;;;;;8.05;3.80;;;7.10;99.90;;;;;;5035044;28;20033;-73
2021/10/01 06:17:15;;;;;;;6.10;3.30;;;7.10;99.90;;;;;;5058582;28;20214;-73
2021/10/01 06:19:42;;;;;;;7.40;4.22;;;7.20;99.90;;;;;;5034096;28;20055;-72
2021/10/01 06:22:09;;;;;;;6.40;3.75;;;7.20;99.90;;;;;;5060181;28;20013;-73
2021/10/01 06:24:35;;;;;;;7.32;4.22;;;7.20;99.90;;;;;;5050752;28;20043;-73
2021/10/01 06:27:01;;;;;;;6.45;4.78;;;7.20;99.90;;;;;;5057655;28;20025;-74
2021/10/01 06:29:27;;;;;;;6.13;4.18;;;6.90;99.90;;;;;;5040784;28;20036;-73
2021/10/01 06:31:52;;;;;;;8.25;4.40;;;6.90;99.90;;;;;;5013469;28;20055;-74
2021/10/01 06:34:18;;;;;;;7.50;4.53;;;7.00;99.90;;;;;;5031368;28;20476;-74
2021/10/01 06:36:44;;;;;;;5.65;3.90;;;7.00;99.90;;;;;;5032441;28;20137;-74
2021/10/01 06:39:10;;;;;;;4.93;3.60;;;6.90;99.90;;;;;;5032429;28;20163;-73
2021/10/01 06:41:37;;;;;;;8.75;6.85;;;7.10;99.90;;;;;;5042607;28;20107;-73
2021/10/01 06:44:05;;;;;;;8.48;5.80;;;7.30;99.90;;;;;;5013743;28;20025;-74
2021/10/01 06:46:49;;;;;;;6.03;4.55;;;7.20;99.90;;;;;;5027473;28;20040;-74
2021/10/01 07:22:37;;;;;;;5.95;4.13;;;8.50;99.90;;;;;;5034639;28;20545;-73
2021/10/01 08:19:38;;;;;;;4.50;3.00;;;10.50;99.90;;;;;;5040390;28;20545;-73
2021/10/01 08:22:04;;;;;;;4.38;2.60;;;10.80;99.90;;;;;;5042502;28;20033;-73
2021/10/01 08:24:31;;;;;;;3.97;2.53;;;11.00;99.90;;;;;;5046896;28;20443;-73
2021/10/01 08:26:57;;;;;;;4.40;2.55;;;11.20;99.90;;;;;;5044603;28;20020;-73
2021/10/01 08:29:24;;;;;;;4.68;2.20;;;11.30;99.90;;;;;;5040905;28;20104;-74
2021/10/01 08:31:50;;;;;;;3.03;2.25;;;11.50;99.90;;;;;;5024865;28;20392;-73
2021/10/01 08:34:17;;;;;;;3.78;2.25;;;11.50;99.90;;;;;;5046989;28;20498;-73
2021/10/01 08:36:44;;;;;;;2.85;2.38;;;11.60;99.90;;;;;;5015356;28;20183;-72
2021/10/01 08:39:10;;;;;;;4.18;2.17;;;11.80;99.90;;;;;;5015500;28;20037;-73
2021/10/01 08:41:37;;;;;;;7.00;2.55;;;12.00;99.90;;;;;;5032843;28;20024;-72
2021/10/01 08:44:05;;;;;;;4.57;2.47;;;12.20;99.90;;;;;;5033026;28;20026;-73
2021/10/01 08:46:31;;;;;;;6.75;2.20;;;12.20;99.90;;;;;;5033040;28;20033;-72
2021/10/01 08:49:00;;;;;;;5.25;2.58;;;12.30;99.90;;;;;;5033174;28;20545;-70
2021/10/01 08:51:26;;;;;;;3.45;2.22;;;12.50;99.90;;;;;;5032619;28;20021;-70
2021/10/01 08:53:53;;;;;;;6.28;2.00;;;12.80;99.90;;;;;;5039629;28;20529;-70
2021/10/01 08:56:19;;;;;;;3.22;1.88;;;13.00;99.90;;;;;;5039049;28;20037;-70
2021/10/01 08:58:46;;;;;;;4.10;2.03;;;13.20;99.90;;;;;;5039903;28;20040;-69
2021/10/01 09:01:11;;;;;;;2.35;1.70;;;13.30;99.90;;;;;;5039600;28;20021;-71
2021/10/01 09:03:40;;;;;;;3.95;1.80;;;13.40;99.90;;;;;;5052960;28;20034;-71
2021/10/01 09:06:06;;;;;;;4.95;1.98;;;13.40;99.90;;;;;;5032836;28;20068;-73
2021/10/01 09:08:34;;;;;;;6.40;1.98;;;13.40;99.90;;;;;;5032556;28;20055;-72
2021/10/01 09:11:02;;;;;;;2.92;1.60;;;13.60;99.90;;;;;;5045830;28;20096;-73
2021/10/01 09:13:29;;;;;;;3.33;1.67;;;13.60;99.90;;;;;;5032412;28;20029;-73
2021/10/01 09:16:04;;;;;;;4.78;1.90;;;13.70;99.90;;;;;;5032415;28;20467;-73
2021/10/01 09:18:32;;;;;;;2.30;1.42;;;14.00;99.90;;;;;;5032537;28;20128;-73
2021/10/01 09:21:07;;;;;;;5.85;1.90;;;13.80;99.90;;;;;;5013841;28;20033;-73
2021/10/01 09:23:40;;;;;;;5.43;2.00;;;14.00;99.90;;;;;;5032374;28;20083;-73
2021/10/01 09:26:12;;;;;;;3.13;1.70;;;14.20;99.90;;;;;;5032472;28;20021;-74
2021/10/01 09:28:46;;;;;;;4.88;1.60;;;14.30;99.90;;;;;;5032514;28;20025;-73
2021/10/01 09:31:30;;;;;;;2.85;1.50;;;14.30;99.90;;;;;;5039091;28;20024;-71
2021/10/01 09:33:56;;;;;;;3.42;1.90;;;14.40;99.90;;;;;;5034153;28;20132;-73
2021/10/01 09:36:21;;;;;;;2.47;1.58;;;14.40;99.90;;;;;;5024970;28;20566;-72
2021/10/01 09:38:47;;;;;;;3.65;1.52;;;14.70;99.90;;;;;;5048025;28;20083;-73
2021/10/01 09:41:16;;;;;;;3.65;1.63;;;14.70;99.90;;;;;;5024945;28;20013;-73
2021/10/01 09:43:42;;;;;;;3.08;1.60;;;14.80;99.90;;;;;;5017702;28;20041;-73
2021/10/01 09:46:12;;;;;;;3.65;1.30;;;14.80;99.90;;;;;;5051961;28;20376;-73
2021/10/01 09:48:40;;;;;;;3.15;1.23;;;14.80;99.90;;;;;;5052003;28;20017;-73
2021/10/01 09:51:18;;;;;;;3.17;1.80;;;14.90;99.90;;;;;;5030515;28;20120;-73
2021/10/01 09:53:49;;;;;;;4.95;1.65;;;14.90;99.90;;;;;;5031788;28;20017;-73
2021/10/01 09:56:32;;;;;;;2.67;1.27;;;15.00;99.90;;;;;;5032934;28;20095;-74
2021/10/01 09:59:37;;;;;;;1.60;1.30;;;15.10;99.90;;;;;;5060071;28;20021;-73
2021/10/01 10:02:07;;;;;;;2.70;1.40;;;15.30;99.90;;;;;;5022662;28;20041;-73
2021/10/01 10:04:44;;;;;;;4.22;1.33;;;15.00;99.90;;;;;;5056865;28;20059;-73
2021/10/01 10:07:16;;;;;;;2.88;1.40;;;15.10;99.90;;;;;;5066815;28;20386;-73
2021/10/01 10:09:46;;;;;;;2.20;1.30;;;15.10;99.90;;;;;;5041939;28;20029;-74
2021/10/01 10:12:14;;;;;;;4.22;1.70;;;15.30;99.90;;;;;;5065983;28;20107;-73
2021/10/01 10:14:43;;;;;;;3.67;1.50;;;15.30;99.90;;;;;;5045925;28;20025;-73
2021/10/01 10:17:21;;;;;;;3.40;1.60;;;15.40;99.90;;;;;;5058683;28;20395;-73
2021/10/01 10:19:47;;;;;;;3.13;1.30;;;15.40;99.90;;;;;;5062783;28;20027;-73
2021/10/01 10:22:13;;;;;;;1.98;1.30;;;15.30;99.90;;;;;;5044204;28;20063;-74
2021/10/01 10:24:39;;;;;;;3.15;1.40;;;15.60;99.90;;;;;;5043352;28;20074;-73
2021/10/01 10:27:05;;;;;;;3.63;1.45;;;15.60;99.90;;;;;;5045180;28;20119;-73
2021/10/01 10:29:31;;;;;;;2.95;1.30;;;15.70;99.90;;;;;;5062679;28;20108;-73
2021/10/01 10:31:57;;;;;;;4.10;1.30;;;15.80;99.90;;;;;;5065947;28;20433;-73
2021/10/01 10:34:25;;;;;;;1.95;1.00;;;15.80;99.90;;;;;;5064074;28;20048;-73
2021/10/01 10:37:09;;;;;;;3.10;1.00;;;15.90;99.90;;;;;;5047963;28;20390;-73
2021/10/01 10:39:37;;;;;;;1.80;1.10;;;16.00;99.90;;;;;;5035388;28;20024;-74
2021/10/01 10:42:03;;;;;;;2.88;1.40;;;16.20;99.90;;;;;;5066344;28;20052;-73
2021/10/01 10:44:44;;;;;;;3.13;1.50;;;16.10;99.90;;;;;;5065979;28;20040;-73
2021/10/01 10:47:11;;;;;;;3.15;0.98;;;16.10;99.90;;;;;;5063317;28;20025;-73
2021/10/01 10:49:37;;;;;;;4.55;1.10;;;16.10;99.90;;;;;;5066738;28;20016;-74
2021/10/01 10:52:17;;;;;;;2.60;1.20;;;16.10;99.90;;;;;;5064033;28;20048;-71
2021/10/01 10:54:50;;;;;;;2.42;1.20;;;16.20;99.90;;;;;;5057359;28;20079;-73
2021/10/01 10:57:15;;;;;;;2.40;1.27;;;16.20;99.90;;;;;;5056789;28;20099;-74
2021/10/01 10:59:51;;;;;;;1.67;1.20;;;16.20;99.90;;;;;;5065869;28;20499;-73
2021/10/01 11:02:44;;;;;;;2.33;1.45;;;16.40;99.90;;;;;;5052973;28;20028;-73
2021/10/01 11:05:26;;;;;;;3.85;1.08;;;16.40;99.90;;;;;;5059774;28;20043;-72
2021/10/01 11:07:56;;;;;;;2.10;1.20;;;16.60;99.90;;;;;;5067528;28;20020;-72
2021/10/01 11:10:43;;;;;;;2.67;1.33;;;16.60;99.90;;;;;;5047012;28;20433;-73
2021/10/01 11:13:23;;;;;;;3.53;1.42;;;16.60;99.90;;;;;;5064175;28;20507;-74
2021/10/01 11:16:10;;;;;;;5.85;1.50;;;16.70;99.90;;;;;;5047463;28;20039;-74
2021/10/01 11:18:47;;;;;;;3.58;1.20;;;16.70;99.90;;;;;;5056890;28;20091;-73
2021/10/01 11:21:42;;;;;;;2.47;1.15;;;16.60;99.90;;;;;;5064754;28;20415;-73
2021/10/01 11:24:18;;;;;;;5.70;1.27;;;16.40;99.90;;;;;;5045826;28;20082;-72
2021/10/01 11:26:54;;;;;;;2.17;1.20;;;16.30;99.90;;;;;;5055460;28;20119;-74
2021/10/01 11:29:23;;;;;;;;;;;16.40;99.90;;;;;;5062568;28;20503;-73
2021/10/01 11:32:10;;;;;;;2.78;1.15;;;16.50;99.90;;;;;;5047876;28;19905;-73
2021/10/01 11:34:36;;;;;;;3.17;1.40;;;16.70;99.90;;;;;;5025914;28;20105;-73
2021/10/01 11:37:02;;;;;;;4.22;1.30;;;16.60;99.90;;;;;;5039313;28;20039;-73
2021/10/01 11:39:27;;;;;;;1.40;1.10;;;16.90;99.90;;;;;;5042738;28;20378;-73
2021/10/01 11:41:54;;;;;;;1.85;1.23;;;17.30;99.90;;;;;;5053627;28;20197;-73
2021/10/01 11:44:23;;;;;;;5.03;1.75;;;17.60;99.90;;;;;;5053585;28;20476;-73
2021/10/01 11:46:49;;;;;;;3.35;1.98;;;18.10;99.90;;;;;;5033627;28;20036;-73
2021/10/01 11:49:20;;;;;;;2.83;1.88;;;18.60;99.90;;;;;;5034661;28;20030;-73
2021/10/01 11:52:05;;;;;;;3.90;1.20;;;19.00;99.90;;;;;;5042823;28;20030;-73
2021/10/01 11:54:31;;;;;;;4.63;1.60;;;19.10;99.90;;;;;;5034071;28;20550;-73
2021/10/01 11:56:59;;;;;;;3.05;1.20;;;19.50;99.90;;;;;;5047454;28;20026;-74
2021/10/01 11:59:45;;;;;;;3.10;1.35;;;20.20;99.90;;;;;;5016127;28;20396;-74
2021/10/01 12:02:11;;;;;;;2.22;1.40;;;20.30;99.90;;;;;;5024835;28;20025;-74
2021/10/01 12:04:36;;;;;;;4.45;2.50;;;20.60;99.90;;;;;;5053541;28;20383;-74
2021/10/01 12:07:04;;;;;;;3.20;1.50;;;20.40;99.90;;;;;;5053758;28;20029;-75
2021/10/01 12:09:30;;;;;;;1.95;1.33;;;20.40;99.90;;;;;;5053581;28;20122;-74
2021/10/01 12:12:05;;;;;;;1.95;1.20;;;20.60;99.90;;;;;;5053325;28;20068;-74
2021/10/01 12:14:30;;;;;;;3.75;1.40;;;20.50;99.90;;;;;;5053535;28;20028;-74
2021/10/01 12:16:58;;;;;;;3.53;1.35;;;20.20;99.90;;;;;;5035640;28;20025;-74
2021/10/01 12:19:25;;;;;;;2.20;1.13;;;20.90;99.90;;;;;;5053416;28;20160;-74
2021/10/01 12:22:04;;;;;;;1.80;0.98;;;20.80;99.90;;;;;;5053234;28;20496;-74
2021/10/01 12:24:44;;;;;;;3.70;2.13;;;21.30;99.90;;;;;;5053107;28;20052;-74
2021/10/01 12:27:10;;;;;;;5.03;1.42;;;21.30;99.90;;;;;;5053312;28;20491;-74
2021/10/01 12:29:48;;;;;;;2.22;1.20;;;21.20;99.90;;;;;;5053434;28;20033;-73
2021/10/01 12:32:14;;;;;;;2.42;1.10;;;21.80;99.90;;;;;;5053054;28;20021;-74
2021/10/01 12:34:58;;;;;;;5.40;2.05;;;21.60;99.90;;;;;;5053101;28;20040;-72
2021/10/01 12:37:28;;;;;;;2.40;1.30;;;22.10;99.90;;;;;;5035117;28;20060;-74
2021/10/01 12:39:57;;;;;;;2.45;1.30;;;21.90;99.90;;;;;;5035154;28;20029;-74
2021/10/01 12:42:27;;;;;;;4.18;1.25;;;22.10;99.90;;;;;;5052723;28;20025;-74
2021/10/01 12:45:03;;;;;;;2.10;1.42;;;21.70;99.90;;;;;;5053037;28;20493;-74
2021/10/01 12:47:36;;;;;;;1.73;1.10;;;22.10;99.90;;;;;;5035031;28;20110;-74
2021/10/01 12:50:08;;;;;;;2.22;1.20;;;22.80;99.90;;;;;;5052906;28;20045;-74
2021/10/01 12:52:35;;;;;;;1.88;1.30;;;22.90;99.90;;;;;;5037164;28;20126;-74
2021/10/01 12:55:10;;;;;;;2.75;1.50;;;22.30;99.90;;;;;;5014973;28;20364;-74
2021/10/01 12:57:41;;;;;;;3.00;1.50;;;22.20;99.90;;;;;;5032844;28;20032;-74
2021/10/01 13:00:13;;;;;;;3.30;1.33;;;21.50;99.90;;;;;;5032774;28;20436;-74
2021/10/01 13:02:41;;;;;;;3.72;1.42;;;21.70;99.90;;;;;;5015168;28;20361;-74
2021/10/01 13:05:26;;;;;;;4.22;1.10;;;22.10;99.90;;;;;;5014865;28;20030;-74
2021/10/01 13:07:52;;;;;;;2.47;1.38;;;22.20;99.90;;;;;;5014761;28;20495;-74
2021/10/01 13:10:22;;;;;;;1.70;1.25;;;21.50;99.90;;;;;;5015133;28;20041;-74
2021/10/01 13:13:02;;;;;;;2.85;1.40;;;21.30;99.90;;;;;;5045740;28;20110;-74
2021/10/01 13:15:41;;;;;;;3.58;1.38;;;22.50;99.90;;;;;;5015093;28;20391;-74
2021/10/01 13:18:17;;;;;;;2.30;1.25;;;23.90;99.90;;;;;;5032510;28;20022;-74
2021/10/01 13:20:44;;;;;;;2.30;1.38;;;23.70;99.90;;;;;;5039387;28;20048;-74
2021/10/01 13:23:22;;;;;;;2.05;1.42;;;23.60;99.90;;;;;;5053215;28;20033;-74
2021/10/01 13:25:51;;;;;;;3.35;1.52;;;23.70;99.90;;;;;;5059487;28;20033;-74
2021/10/01 13:28:19;;;;;;;2.08;1.10;;;22.90;99.90;;;;;;5032383;28;20022;-74
2021/10/01 13:30:48;;;;;;;4.03;1.60;;;22.70;99.90;;;;;;5043701;28;20029;-73
2021/10/01 13:33:14;;;;;;;4.50;1.50;;;23.40;99.90;;;;;;5063602;28;20471;-74
2021/10/01 13:35:39;;;;;;;3.95;1.40;;;22.90;99.90;;;;;;5019500;28;20112;-74
2021/10/01 13:38:06;;;;;;;4.40;1.50;;;23.00;99.90;;;;;;5032258;28;20563;-74
2021/10/01 13:40:32;;;;;;;3.00;1.25;;;22.90;99.90;;;;;;5014224;28;20113;-73
2021/10/01 13:42:58;;;;;;;2.25;1.20;;;22.30;99.90;;;;;;5032158;28;20030;-74
2021/10/01 13:45:24;;;;;;;2.08;1.25;;;22.90;99.90;;;;;;5049795;28;20498;-73
2021/10/01 13:47:50;;;;;;;1.40;1.30;;;22.70;99.90;;;;;;5034024;28;20487;-73
2021/10/01 13:50:16;;;;;;;2.25;1.10;;;22.50;99.90;;;;;;5033897;28;20029;-73
2021/10/01 13:52:42;;;;;;;12.45;3.55;;;22.30;99.90;;;;;;5017528;28;20029;-74
2021/10/01 13:55:09;;;;;;;2.22;1.30;;;23.30;99.90;;;;;;5014293;28;20033;-74
2021/10/01 13:57:35;;;;;;;1.70;1.35;;;24.20;99.90;;;;;;5043051;28;20029;-74
2021/10/01 14:00:01;;;;;;;1.85;1.30;;;23.00;99.90;;;;;;5016045;28;20659;-73
2021/10/01 14:02:26;;;;;;;2.13;1.48;;;22.60;99.90;;;;;;5031550;28;20549;-73
2021/10/01 14:04:52;;;;;;;2.00;1.20;;;22.70;99.90;;;;;;5031439;28;20036;-74
2021/10/01 14:07:18;;;;;;;1.35;0.98;;;23.30;99.90;;;;;;5031404;28;20025;-73
2021/10/01 14:09:43;;;;;;;2.05;1.30;;;24.00;99.90;;;;;;5031646;28;20141;-73
2021/10/01 14:12:09;;;;;;;2.50;1.50;;;23.60;99.90;;;;;;5031495;28;20071;-73
2021/10/01 14:14:35;;;;;;;1.25;1.05;;;24.70;99.90;;;;;;5060603;28;20382;-73
2021/10/01 14:17:01;;;;;;;4.07;1.77;;;23.90;99.90;;;;;;5027472;28;20502;-73
2021/10/01 14:19:26;;;;;;;3.25;1.20;;;24.30;99.90;;;;;;5031531;28;20476;-73
2021/10/01 14:21:51;;;;;;;1.98;1.30;;;24.50;99.90;;;;;;5031368;28;20550;-74
2021/10/01 14:24:17;;;;;;;1.58;1.00;;;24.40;99.90;;;;;;5031506;28;20124;-73
2021/10/01 14:26:42;;;;;;;2.45;1.00;;;23.30;99.90;;;;;;5013928;28;20048;-73
2021/10/01 14:29:09;;;;;;;2.42;1.23;;;23.00;99.90;;;;;;5023317;28;20545;-73
2021/10/01 14:31:34;;;;;;;3.08;1.00;;;22.60;99.90;;;;;;5048636;28;20033;-73